Time;durP1;ratioP1;P1;durP2;ratioP2;P2;SDS_P1;SDS_P2;PMS_P1;PMS_P2;Temp;Humidity;BMP_temperature;BMP_pressure;BME280_temperature;BME280_humidity;BME280_pressure;Samples;Min_cycle;Max_cycle;Signal;HPM_P1;HPM_P2
2023/01/24 00:00:03;;;;;;;56.30;26.00;;;;;;;0.78;90.49;101997.03;212237;1300;139949;-65
2023/01/24 00:05:27;;;;;;;48.30;26.20;;;;;;;0.79;90.15;101996.20;210207;1297;140263;-65
2023/01/24 00:10:31;;;;;;;52.10;24.00;;;;;;;0.78;90.21;101997.02;212654;1291;140883;-65
2023/01/24 00:15:35;;;;;;;63.60;25.00;;;;;;;0.77;90.42;102000.05;212993;1300;140820;-65
2023/01/24 00:20:37;;;;;;;62.10;26.40;;;;;;;0.81;90.05;102001.54;212569;1299;139763;-65
2023/01/24 00:25:39;;;;;;;58.20;24.80;;;;;;;0.86;90.15;102000.62;210742;1300;141008;-65
2023/01/24 00:30:42;;;;;;;53.80;25.10;;;;;;;0.89;90.55;102005.28;212065;1299;140299;-65
2023/01/24 00:35:45;;;;;;;47.00;22.10;;;;;;;0.87;89.84;102008.20;210396;1292;141153;-65
2023/01/24 00:40:50;;;;;;;46.00;23.40;;;;;;;0.84;90.16;102005.27;211463;1291;141572;-65
2023/01/24 00:45:54;;;;;;;53.90;27.30;;;;;;;0.82;89.97;102005.27;210106;1291;140076;-65
2023/01/24 00:50:58;;;;;;;60.10;24.60;;;;;;;0.80;90.22;102005.59;211405;1300;140849;-66
2023/01/24 00:56:01;;;;;;;54.10;24.70;;;;;;;0.84;90.39;102001.48;210900;1296;139827;-65
2023/01/24 01:01:05;;;;;;;52.50;22.30;;;;;;;0.86;90.67;101997.07;211457;1291;139947;-65
2023/01/24 01:06:16;;;;;;;53.00;24.50;;;;;;;0.85;90.07;102004.33;210412;1296;140229;-65
2023/01/24 01:11:19;;;;;;;52.80;24.80;;;;;;;0.86;90.65;102004.80;210333;1298;139818;-65
2023/01/24 01:16:24;;;;;;;60.50;22.60;;;;;;;0.88;90.47;102002.39;210692;1298;141208;-65
2023/01/24 01:21:27;;;;;;;47.60;22.30;;;;;;;0.87;90.32;102000.67;211032;1290;139900;-64
2023/01/24 01:26:31;;;;;;;50.40;24.10;;;;;;;0.84;90.12;101999.85;210750;1277;139807;-65
2023/01/24 01:31:35;;;;;;;47.00;23.20;;;;;;;0.87;90.45;102000.13;210648;1296;140138;-64
2023/01/24 01:36:38;;;;;;;50.50;23.90;;;;;;;0.89;90.60;102000.33;210257;1291;140701;-64
2023/01/24 01:41:41;;;;;;;49.20;27.60;;;;;;;0.88;90.72;101994.47;211262;1283;140416;-65
2023/01/24 01:46:49;;;;;;;52.40;23.80;;;;;;;0.88;90.47;101993.96;211829;1300;140080;-64
2023/01/24 01:51:58;;;;;;;57.20;23.70;;;;;;;0.84;90.29;101987.80;210812;1297;140510;-66
2023/01/24 01:57:03;;;;;;;44.90;24.00;;;;;;;0.81;90.54;101986.10;210725;1298;139877;-65
2023/01/24 02:02:11;;;;;;;52.40;22.00;;;;;;;0.82;90.35;101986.02;211653;1298;141910;-65
2023/01/24 02:07:28;;;;;;;57.60;24.10;;;;;;;0.86;90.65;101980.49;212256;1307;141435;-66
2023/01/24 02:12:38;;;;;;;53.60;21.00;;;;;;;0.95;90.60;101973.40;212920;1290;140305;-66
2023/01/24 02:17:41;;;;;;;56.30;23.00;;;;;;;1.03;90.45;101965.80;211807;1300;140207;-65
2023/01/24 02:22:53;;;;;;;51.70;23.40;;;;;;;1.06;90.56;101956.54;212894;1297;140452;-66
2023/01/24 02:27:58;;;;;;;52.20;22.60;;;;;;;1.10;90.35;101960.77;212038;1302;139480;-66
2023/01/24 02:33:19;;;;;;;49.50;19.80;;;;;;;1.12;90.09;101965.00;211147;1298;139698;-65
2023/01/24 02:38:27;;;;;;;43.00;20.10;;;;;;;1.07;89.59;101963.09;212362;1304;139952;-66
2023/01/24 02:43:31;;;;;;;44.40;21.70;;;;;;;0.98;90.09;101959.70;211749;1296;140378;-65
2023/01/24 02:48:33;;;;;;;42.10;20.60;;;;;;;0.94;89.96;101963.20;211219;1291;139396;-65
2023/01/24 02:53:39;;;;;;;55.00;23.20;;;;;;;0.97;90.23;101968.23;211551;1298;140629;-63
2023/01/24 02:58:44;;;;;;;41.30;18.90;;;;;;;1.02;89.99;101967.13;211699;1290;139661;-65
2023/01/24 03:03:48;;;;;;;42.30;19.80;;;;;;;0.96;90.02;101972.26;210265;1292;140045;-65
2023/01/24 03:08:51;;;;;;;52.70;21.50;;;;;;;0.91;90.14;101978.67;210749;1296;139770;-64
2023/01/24 03:35:20;;;;;;;53.70;20.20;;;;;;;0.92;89.91;101970.53;210870;1291;141271;-65
2023/01/24 03:40:22;;;;;;;47.50;22.50;;;;;;;0.92;90.51;101973.85;211671;1298;140728;-65
2023/01/24 03:45:27;;;;;;;39.70;19.50;;;;;;;0.90;90.10;101976.77;212237;1291;139530;-65
2023/01/24 03:56:00;;;;;;;44.50;21.70;;;;;;;0.91;90.30;101984.61;211814;1291;139928;-66
2023/01/24 04:01:03;;;;;;;44.40;22.40;;;;;;;0.93;90.28;101986.50;211245;1296;139711;-65
2023/01/24 04:06:06;;;;;;;45.00;22.30;;;;;;;0.96;90.58;101986.10;212187;1299;140024;-65
2023/01/24 04:11:10;;;;;;;48.10;21.70;;;;;;;0.97;90.35;101992.50;211411;1298;140041;-65
2023/01/24 04:16:14;;;;;;;48.30;22.00;;;;;;;1.01;90.28;102001.89;212955;1296;139615;-66
2023/01/24 04:21:18;;;;;;;45.60;20.30;;;;;;;1.01;90.32;101997.50;212973;1299;140682;-66
2023/01/24 04:26:20;;;;;;;53.30;21.90;;;;;;;1.01;90.10;101996.66;210977;1297;140182;-65
2023/01/24 04:31:23;;;;;;;47.90;19.70;;;;;;;0.97;90.11;101997.47;211246;1299;139863;-65
2023/01/24 04:36:26;;;;;;;48.30;20.50;;;;;;;1.00;89.82;102001.58;211827;1296;140303;-66
2023/01/24 04:41:28;;;;;;;44.40;21.70;;;;;;;1.01;90.23;102003.11;210465;1298;139539;-66
2023/01/24 04:46:32;;;;;;;41.60;21.60;;;;;;;0.98;90.25;102003.15;211301;1303;139988;-66
2023/01/24 04:51:42;;;;;;;50.60;26.50;;;;;;;0.96;90.67;102011.52;210688;1285;139272;-65
2023/01/24 04:56:47;;;;;;;38.80;19.20;;;;;;;1.05;90.76;102016.26;211279;1290;140681;-65
2023/01/24 05:01:49;;;;;;;49.90;21.50;;;;;;;1.09;90.12;102013.69;210329;1298;140221;-65
2023/01/24 05:06:53;;;;;;;46.50;20.90;;;;;;;1.07;90.12;102013.73;210720;1291;139586;-66
2023/01/24 05:11:56;;;;;;;45.00;22.20;;;;;;;0.99;90.36;102018.27;211102;1298;140518;-64
2023/01/24 05:16:59;;;;;;;52.00;23.40;;;;;;;0.98;90.26;102014.02;210177;1292;140280;-66
2023/01/24 05:22:03;;;;;;;44.30;21.40;;;;;;;0.95;89.97;102016.15;210672;1306;139775;-66
2023/01/24 05:27:10;;;;;;;;;;;;;;;0.90;90.45;102015.47;210500;1288;139272;-65
2023/01/24 05:32:12;;;;;;;56.50;21.80;;;;;;;0.85;90.38;102017.25;211126;1291;125962;-64
2023/01/24 05:37:15;;;;;;;59.60;21.40;;;;;;;0.89;90.65;102017.01;211570;1297;140004;-67
2023/01/24 05:42:18;;;;;;;54.50;24.90;;;;;;;0.92;90.39;102014.44;211679;1290;140155;-67
2023/01/24 05:47:20;;;;;;;58.80;23.60;;;;;;;0.95;90.75;102017.94;211109;1291;139320;-67
2023/01/24 05:52:24;;;;;;;53.30;24.20;;;;;;;1.02;90.95;102019.85;211038;1291;140842;-66
2023/01/24 05:57:27;;;;;;;53.40;26.00;;;;;;;1.11;90.85;102025.63;211564;1296;155191;-64
2023/01/24 06:02:31;;;;;;;57.80;27.00;;;;;;;1.13;90.83;102023.20;210933;1289;140665;-65
2023/01/24 06:07:33;;;;;;;52.50;22.50;;;;;;;1.14;90.47;102027.69;212435;1298;140172;-67
2023/01/24 06:12:35;;;;;;;58.60;26.60;;;;;;;1.18;90.34;102036.86;212879;1290;140679;-67
2023/01/24 06:17:38;;;;;;;50.00;24.60;;;;;;;1.18;90.49;102039.14;211683;1301;140130;-65
2023/01/24 06:22:54;;;;;;;55.30;21.10;;;;;;;1.12;90.43;102042.59;210042;1291;139921;-66
2023/01/24 06:27:57;;;;;;;49.40;22.50;;;;;;;1.13;90.18;102047.58;212864;1306;142588;-66
2023/01/24 06:33:18;;;;;;;49.50;25.00;;;;;;;1.15;90.45;102048.47;211323;1303;139584;-65
2023/01/24 06:38:23;;;;;;;55.90;26.80;;;;;;;1.15;90.27;102051.81;212312;1299;141212;-64
2023/01/24 06:43:25;;;;;;;43.20;21.70;;;;;;;1.15;90.31;102055.27;212118;1288;140232;-66
2023/01/24 06:48:28;;;;;;;43.80;20.70;;;;;;;1.17;90.04;102053.88;210136;1306;139736;-65
2023/01/24 06:53:35;;;;;;;69.00;30.70;;;;;;;1.19;90.23;102066.55;211361;1284;139669;-68
2023/01/24 06:58:38;;;;;;;53.20;23.50;;;;;;;1.22;90.38;102075.27;210184;1296;139505;-66
2023/01/24 07:03:43;;;;;;;61.00;25.60;;;;;;;1.27;90.04;102080.09;211349;1291;139985;-66
2023/01/24 07:08:47;;;;;;;54.20;22.10;;;;;;;1.28;90.11;102078.10;210877;1300;139238;-66
2023/01/24 07:13:50;;;;;;;67.80;26.40;;;;;;;1.27;90.31;102074.48;210780;1291;140654;-69
2023/01/24 07:18:54;;;;;;;58.60;25.80;;;;;;;1.27;90.54;102076.02;210766;1291;139328;-69
2023/01/24 07:23:58;;;;;;;56.30;23.80;;;;;;;1.32;90.33;102079.18;211324;1284;140224;-69
2023/01/24 07:29:02;;;;;;;46.10;21.70;;;;;;;1.35;90.30;102073.48;211205;1300;140446;-68
2023/01/24 07:34:06;;;;;;;56.40;26.50;;;;;;;1.37;90.53;102074.23;211297;1291;139138;-68
2023/01/24 07:39:10;;;;;;;61.60;26.20;;;;;;;1.39;90.27;102080.54;210745;1298;140226;-70
2023/01/24 07:44:13;;;;;;;51.80;24.00;;;;;;;1.49;90.04;102083.17;210393;1300;139832;-66
2023/01/24 07:49:17;;;;;;;55.20;25.80;;;;;;;1.52;90.11;102075.73;212178;1299;231054;-67
2023/01/24 07:54:21;;;;;;;65.10;25.60;;;;;;;1.54;90.22;102072.36;212352;1300;140144;-69
2023/01/24 07:59:24;;;;;;;56.50;23.60;;;;;;;1.62;90.27;102069.29;210473;1297;139992;-69
2023/01/24 08:04:41;;;;;;;52.10;25.50;;;;;;;1.73;90.13;102075.32;212932;1290;141231;-68
2023/01/24 08:09:46;;;;;;;62.50;30.30;;;;;;;1.80;90.07;102081.76;212950;1284;139637;-70
2023/01/24 08:14:48;;;;;;;59.00;25.90;;;;;;;1.84;90.27;102085.11;212005;1296;139544;-69
2023/01/24 08:19:52;;;;;;;52.80;26.40;;;;;;;1.93;89.83;102093.85;210056;1297;144264;-66
2023/01/24 08:25:00;;;;;;;55.10;24.90;;;;;;;1.92;89.42;102101.45;212619;1291;139571;-69
2023/01/24 08:30:03;;;;;;;67.00;27.20;;;;;;;1.90;89.49;102101.81;210299;1290;139615;-69
2023/01/24 08:35:06;;;;;;;75.60;27.70;;;;;;;1.92;89.67;102098.30;209802;1291;139515;-69
2023/01/24 08:40:11;;;;;;;75.40;35.60;;;;;;;2.01;89.78;102095.52;211479;1291;139836;-66
2023/01/24 08:45:13;;;;;;;69.70;27.70;;;;;;;2.05;89.57;102097.08;210365;1291;140086;-64
2023/01/24 08:50:21;;;;;;;64.20;27.20;;;;;;;2.07;89.62;102104.30;210676;1284;652803;-64
2023/01/24 08:55:24;;;;;;;72.50;27.80;;;;;;;2.13;89.36;102105.42;210238;1293;139995;-65
2023/01/24 09:00:27;;;;;;;63.90;28.90;;;;;;;2.18;89.24;102105.19;210950;1291;141578;-66
2023/01/24 09:05:30;;;;;;;64.50;29.20;;;;;;;2.19;89.40;102107.19;211239;1287;139739;-66
2023/01/24 09:10:32;;;;;;;68.60;27.90;;;;;;;2.22;88.98;102109.43;210115;1290;139774;-66
2023/01/24 09:15:34;;;;;;;66.20;29.50;;;;;;;2.20;88.93;102109.73;210214;1290;140731;-65
2023/01/24 09:20:37;;;;;;;63.50;29.70;;;;;;;2.16;88.93;102107.09;210293;1293;140123;-65
2023/01/24 09:25:39;;;;;;;72.00;28.30;;;;;;;2.10;88.55;102104.61;210648;1290;140156;-65
2023/01/24 09:30:42;;;;;;;61.60;25.70;;;;;;;2.10;88.75;102107.96;210799;1290;140878;-65
2023/01/24 09:36:14;;;;;;;68.80;30.00;;;;;;;2.11;88.87;102107.72;211004;1291;140195;-65
2023/01/24 09:41:45;;;;;;;48.60;27.20;;;;;;;2.15;89.12;102100.30;210658;1290;139576;-65
2023/01/24 09:46:54;;;;;;;63.80;26.80;;;;;;;2.22;89.28;102102.95;211301;1298;140392;-65
2023/01/24 09:51:56;;;;;;;57.40;27.70;;;;;;;2.28;89.08;102100.14;211041;1296;140399;-64
2023/01/24 09:56:59;;;;;;;62.10;27.70;;;;;;;2.37;89.26;102101.02;212918;1290;140570;-68
2023/01/24 10:02:13;;;;;;;66.80;26.70;;;;;;;2.48;89.38;102098.60;211670;1284;139406;-67
2023/01/24 10:07:22;;;;;;;70.30;28.30;;;;;;;2.59;88.93;102100.13;212933;1297;139647;-68
2023/01/24 10:12:45;;;;;;;60.30;30.00;;;;;;;2.69;88.85;102106.63;212555;1298;141116;-66
2023/01/24 10:18:22;;;;;;;56.40;28.10;;;;;;;2.69;88.76;102107.32;210968;1304;139686;-67
2023/01/24 10:23:31;;;;;;;66.20;28.20;;;;;;;2.69;88.61;102107.89;210045;1297;140847;-68
2023/01/24 10:28:38;;;;;;;69.00;30.60;;;;;;;2.78;88.82;102101.36;211384;1290;140450;-67
2023/01/24 10:33:47;;;;;;;58.30;28.40;;;;;;;2.84;88.70;102104.73;211196;1294;142642;-67
2023/01/24 10:38:50;;;;;;;74.20;31.60;;;;;;;2.85;88.52;102103.58;211443;1290;140721;-68
2023/01/24 10:44:03;;;;;;;76.00;32.30;;;;;;;2.83;88.20;102109.69;210897;1300;142460;-67
2023/01/24 10:49:11;;;;;;;54.50;24.60;;;;;;;2.75;88.33;102101.09;211723;1290;140176;-68
2023/01/24 10:54:23;;;;;;;77.90;31.80;;;;;;;2.69;88.33;102100.52;210355;1290;140709;-69
2023/01/24 10:59:26;;;;;;;64.30;32.10;;;;;;;2.69;88.39;102095.76;210011;1297;141435;-68
2023/01/24 11:04:30;;;;;;;66.70;27.70;;;;;;;2.61;88.05;102091.55;211009;1293;140763;-68
2023/01/24 11:09:40;;;;;;;59.90;27.60;;;;;;;2.52;88.15;102093.12;210848;1297;139289;-67
2023/01/24 11:14:48;;;;;;;74.30;33.40;;;;;;;2.50;88.12;102085.90;210351;1291;140352;-67
2023/01/24 11:20:00;;;;;;;73.90;33.90;;;;;;;2.52;88.32;102086.23;210065;1299;139979;-66
2023/01/24 11:25:13;;;;;;;72.60;30.00;;;;;;;2.54;88.24;102078.92;210505;1291;140133;-67
2023/01/24 11:30:20;;;;;;;63.90;26.80;;;;;;;2.53;88.22;102081.66;210465;1305;140863;-67
2023/01/24 11:35:28;;;;;;;64.20;30.40;;;;;;;2.53;88.02;102077.23;211629;1280;140753;-66
2023/01/24 11:40:36;;;;;;;62.00;31.00;;;;;;;2.54;88.32;102076.27;211271;1300;140625;-67
2023/01/24 11:45:58;;;;;;;71.60;31.00;;;;;;;2.58;88.38;102066.83;211583;1294;139257;-64
2023/01/24 11:51:09;;;;;;;67.00;30.40;;;;;;;2.69;88.34;102059.26;211005;1284;142388;-67
2023/01/24 11:56:38;;;;;;;60.70;30.00;;;;;;;2.70;88.12;102061.78;211320;1294;140337;-66
2023/01/24 12:01:59;;;;;;;65.70;28.00;;;;;;;2.62;87.98;102063.82;212909;1298;140114;-69
2023/01/24 12:07:05;;;;;;;65.30;32.00;;;;;;;2.61;88.02;102065.02;212437;1287;142124;-69
2023/01/24 12:12:27;;;;;;;79.90;34.60;;;;;;;2.60;88.15;102060.33;211221;1297;140935;-68
2023/01/24 12:17:56;;;;;;;54.30;24.90;;;;;;;2.60;88.00;102058.92;209919;1296;140124;-69
2023/01/24 12:23:31;;;;;;;66.80;29.80;;;;;;;2.67;88.32;102050.98;209736;1297;141116;-68
2023/01/24 12:28:50;;;;;;;64.50;30.10;;;;;;;2.65;88.29;102044.30;210527;1291;139548;-67
2023/01/24 12:34:02;;;;;;;61.20;27.20;;;;;;;2.58;87.64;102041.02;211180;1291;140454;-67
2023/01/24 12:39:21;;;;;;;58.10;29.50;;;;;;;2.57;88.29;102037.98;210635;1300;140176;-67
2023/01/24 12:44:28;;;;;;;62.90;27.90;;;;;;;2.58;88.22;102035.59;210119;1298;140067;-66
2023/01/24 12:49:48;;;;;;;74.60;31.00;;;;;;;2.54;88.13;102035.91;210832;1298;140640;-67
2023/01/24 12:55:23;;;;;;;67.90;32.80;;;;;;;2.57;88.30;102035.67;210641;1293;139684;-68
2023/01/24 13:00:50;;;;;;;60.90;28.40;;;;;;;2.59;88.15;102037.05;211458;1291;139317;-66
2023/01/24 13:06:01;;;;;;;68.60;27.90;;;;;;;2.58;88.22;102038.89;210454;1285;140179;-70
2023/01/24 13:11:41;;;;;;;67.40;29.40;;;;;;;2.56;88.11;102039.84;210138;1291;140367;-70
2023/01/24 13:17:06;;;;;;;79.70;33.90;;;;;;;2.47;88.00;102043.52;209107;1300;139851;-69
2023/01/24 13:23:00;;;;;;;71.00;30.30;;;;;;;2.42;88.33;102035.73;209507;1291;236061;-70
2023/01/24 13:28:17;;;;;;;70.40;33.20;;;;;;;2.47;88.49;102034.77;210617;1300;140605;-67
2023/01/24 13:33:30;;;;;;;76.40;34.00;;;;;;;2.53;88.27;102028.83;210038;1292;140127;-68
2023/01/24 13:38:44;;;;;;;76.60;34.40;;;;;;;2.49;88.01;102022.27;211263;1296;142951;-69
2023/01/24 13:43:46;;;;;;;75.50;30.80;;;;;;;2.52;88.60;102020.65;211105;1291;140416;-71
2023/01/24 13:48:56;;;;;;;69.80;30.40;;;;;;;2.59;88.35;102031.83;212136;1300;140580;-69
2023/01/24 13:54:13;;;;;;;60.20;29.50;;;;;;;2.63;88.17;102028.12;212994;1298;140911;-68
2023/01/24 13:59:16;;;;;;;69.00;28.60;;;;;;;2.60;88.08;102027.90;212845;1300;139527;-67
2023/01/24 14:04:42;;;;;;;65.40;27.30;;;;;;;2.48;87.59;102032.17;212795;1282;139793;-70
2023/01/24 14:09:46;;;;;;;68.20;30.50;;;;;;;2.43;87.72;102039.80;211814;1301;140628;-68
2023/01/24 14:15:08;;;;;;;58.60;30.50;;;;;;;2.45;88.09;102043.52;211374;1300;141035;-68
2023/01/24 14:20:21;;;;;;;67.40;31.20;;;;;;;2.43;88.19;102048.38;209431;1291;140093;-66
2023/01/24 14:25:23;;;;;;;;;;;;;;;2.38;87.93;102045.66;211051;1293;139411;-69
2023/01/24 14:30:43;;;;;;;64.60;30.80;;;;;;;2.34;87.74;102047.20;211430;1291;126306;-69
2023/01/24 14:36:00;;;;;;;65.90;34.10;;;;;;;2.35;88.44;102038.48;209609;1285;139465;-69
2023/01/24 14:41:02;;;;;;;65.40;28.70;;;;;;;2.40;88.45;102034.81;209715;1293;139192;-69
2023/01/24 14:46:27;;;;;;;68.50;32.40;;;;;;;2.37;88.13;102028.70;209647;1290;140147;-69
2023/01/24 14:51:30;;;;;;;61.00;32.20;;;;;;;2.35;88.09;102023.13;209764;1283;141365;-69
2023/01/24 14:56:39;;;;;;;67.40;32.70;;;;;;;2.28;88.18;102021.88;210767;1296;139477;-68
2023/01/24 15:01:42;;;;;;;61.90;30.80;;;;;;;2.21;88.37;102023.16;209698;1297;140353;-69
2023/01/24 15:06:44;;;;;;;68.60;30.40;;;;;;;2.19;88.55;102023.14;209728;1294;140772;-69
2023/01/24 15:11:47;;;;;;;62.70;29.60;;;;;;;2.19;88.38;102024.36;209818;1299;140481;-70
2023/01/24 15:16:55;;;;;;;64.60;29.80;;;;;;;2.17;88.37;102016.45;209641;1290;139444;-70
2023/01/24 15:21:58;;;;;;;63.80;32.30;;;;;;;2.12;88.60;102021.99;209559;1294;140162;-69
2023/01/24 15:27:22;;;;;;;66.80;28.30;;;;;;;2.11;88.27;102027.16;210072;1284;140743;-72
2023/01/24 15:32:37;;;;;;;71.40;30.90;;;;;;;2.09;88.54;102032.20;210484;1290;141051;-70
2023/01/24 15:37:41;;;;;;;61.50;28.50;;;;;;;2.07;88.58;102032.10;210960;1291;140021;-67
2023/01/24 15:48:26;;;;;;;66.40;31.80;;;;;;;2.07;88.62;102026.79;211300;1289;140273;-65
2023/01/24 15:53:29;;;;;;;66.80;33.30;;;;;;;2.14;88.76;102027.65;212800;1296;139821;-65
2023/01/24 15:58:34;;;;;;;73.20;37.30;;;;;;;2.11;88.59;102030.85;212895;1301;139627;-67
2023/01/24 16:03:36;;;;;;;68.60;32.50;;;;;;;2.07;88.42;102022.77;212811;1300;139537;-67
2023/01/24 16:08:39;;;;;;;76.00;33.60;;;;;;;2.11;88.39;102023.00;211548;1293;140181;-66
2023/01/24 16:13:48;;;;;;;66.40;34.10;;;;;;;2.13;88.28;102018.37;212034;1298;141924;-68
2023/01/24 16:18:50;;;;;;;76.60;35.90;;;;;;;2.14;88.53;102024.13;212137;1300;142712;-67
2023/01/24 16:23:53;;;;;;;71.90;30.20;;;;;;;2.12;88.39;102018.83;211875;1290;140485;-66
2023/01/24 16:28:55;;;;;;;78.10;38.00;;;;;;;2.17;88.52;102004.04;211430;1293;139778;-68
2023/01/24 16:33:58;;;;;;;77.80;35.40;;;;;;;2.16;88.22;102001.67;209784;1300;139601;-69
2023/01/24 16:39:01;;;;;;;74.60;33.00;;;;;;;2.13;88.41;101997.19;211742;1298;139401;-69
2023/01/24 16:44:04;;;;;;;65.10;27.70;;;;;;;2.13;88.19;102002.77;210185;1292;139815;-69
2023/01/24 16:49:06;;;;;;;70.10;30.60;;;;;;;2.15;88.31;102008.96;210113;1296;139849;-65
2023/01/24 16:54:08;;;;;;;78.80;40.90;;;;;;;2.11;88.55;102013.67;210701;1284;139750;-66
2023/01/24 16:59:10;;;;;;;66.20;32.20;;;;;;;2.04;88.45;102023.67;209880;1291;139667;-62
2023/01/24 17:04:13;;;;;;;77.10;32.80;;;;;;;2.00;88.77;102029.98;209947;1298;139881;-63
2023/01/24 17:09:18;;;;;;;74.30;37.40;;;;;;;2.00;88.49;102030.89;210266;1300;139991;-65
2023/01/24 17:14:22;;;;;;;64.50;34.80;;;;;;;1.99;88.77;102031.94;211138;1291;139972;-66
2023/01/24 17:19:28;;;;;;;80.70;35.00;;;;;;;1.94;88.55;102037.99;210915;1293;139976;-68
2023/01/24 17:24:32;;;;;;;70.70;32.40;;;;;;;1.94;88.72;102041.01;211387;1291;139906;-68
2023/01/24 17:29:35;;;;;;;75.60;34.90;;;;;;;1.98;88.72;102041.02;211074;1284;140041;-69
2023/01/24 17:34:38;;;;;;;77.70;39.90;;;;;;;1.98;88.48;102043.10;209505;1290;140632;-71
2023/01/24 17:39:40;;;;;;;87.00;37.00;;;;;;;1.93;88.40;102043.66;211388;1290;139428;-71
2023/01/24 17:44:44;;;;;;;86.40;36.20;;;;;;;1.89;88.67;102040.52;210214;1293;140084;-68
2023/01/24 17:49:47;;;;;;;86.10;37.90;;;;;;;1.88;88.67;102032.71;212713;1285;140424;-68
2023/01/24 17:54:57;;;;;;;76.80;37.80;;;;;;;1.89;88.79;102034.91;212550;1284;140502;-70
2023/01/24 18:00:04;;;;;;;89.10;37.30;;;;;;;1.89;88.79;102032.94;212895;1284;151092;-67
2023/01/24 18:05:07;;;;;;;77.40;35.60;;;;;;;1.85;88.51;102036.79;212909;1303;141695;-68
2023/01/24 18:10:10;;;;;;;82.20;34.20;;;;;;;1.84;88.59;102038.60;212409;1290;139704;-69
2023/01/24 18:15:13;;;;;;;79.70;35.70;;;;;;;1.93;88.80;102031.42;210344;1294;140102;-68
2023/01/24 18:20:18;;;;;;;81.80;36.20;;;;;;;2.01;88.91;102020.41;210769;1291;140094;-68
2023/01/24 18:25:27;;;;;;;71.00;33.60;;;;;;;2.04;88.48;102020.55;209944;1290;139494;-70
2023/01/24 18:30:34;;;;;;;79.70;35.60;;;;;;;1.95;88.61;102029.34;210699;1296;140644;-69
2023/01/24 18:35:42;;;;;;;93.20;40.90;;;;;;;1.95;88.67;102031.61;210055;1290;139531;-70
2023/01/24 18:40:47;;;;;;;85.90;36.20;;;;;;;1.94;88.54;102036.56;210286;1294;141135;-69
2023/01/24 18:45:53;;;;;;;79.00;36.60;;;;;;;1.91;88.66;102040.39;210119;1291;140690;-68
2023/01/24 18:51:02;;;;;;;87.50;34.50;;;;;;;1.87;88.71;102045.24;209718;1284;139574;-68
2023/01/24 18:56:06;;;;;;;76.00;35.50;;;;;;;1.82;88.51;102041.44;209707;1296;140624;-69
2023/01/24 19:01:20;;;;;;;84.90;35.50;;;;;;;1.78;88.59;102037.05;210652;1288;140229;-69
2023/01/24 19:06:25;;;;;;;78.30;37.50;;;;;;;1.74;88.53;102028.60;210033;1294;139292;-69
2023/01/24 19:11:29;;;;;;;89.20;35.30;;;;;;;1.74;88.82;102018.29;209818;1290;139791;-68
2023/01/24 19:16:39;;;;;;;81.30;35.20;;;;;;;1.78;88.73;102015.13;210066;1298;139822;-69
2023/01/24 19:21:43;;;;;;;78.00;36.00;;;;;;;1.75;88.87;102016.04;210076;1290;139980;-68
2023/01/24 19:26:46;;;;;;;72.80;32.70;;;;;;;1.67;88.94;102023.81;210234;1297;139287;-68
2023/01/24 19:31:51;;;;;;;76.40;32.00;;;;;;;1.61;89.01;102027.61;209991;1290;140111;-69
2023/01/24 19:36:55;;;;;;;82.40;34.00;;;;;;;1.58;88.61;102021.23;209972;1293;140884;-67
2023/01/24 19:41:57;;;;;;;72.40;31.00;;;;;;;1.54;88.65;102022.23;210025;1298;139793;-68
2023/01/24 19:46:59;;;;;;;73.10;32.30;;;;;;;1.50;88.84;102017.35;211500;1297;140001;-69
2023/01/24 19:52:02;;;;;;;65.90;31.60;;;;;;;1.54;89.07;102013.85;210523;1290;141350;-69
2023/01/24 19:57:05;;;;;;;68.90;30.90;;;;;;;1.53;88.93;102016.92;212987;1293;140624;-69
2023/01/24 20:02:09;;;;;;;70.10;32.00;;;;;;;1.48;88.69;102019.06;211741;1298;139545;-69
2023/01/24 20:07:12;;;;;;;73.30;34.10;;;;;;;1.46;88.69;102015.88;210931;1291;140146;-67
2023/01/24 20:12:18;;;;;;;66.20;32.50;;;;;;;1.49;88.80;102021.08;210593;1296;140240;-67
2023/01/24 20:17:21;;;;;;;68.90;29.30;;;;;;;1.52;88.60;102018.56;211245;1301;141089;-67
2023/01/24 20:22:30;;;;;;;75.30;31.20;;;;;;;1.56;89.04;102017.86;210492;1301;139961;-67
2023/01/24 20:27:34;;;;;;;58.80;26.90;;;;;;;1.55;88.63;102027.40;210227;1297;140695;-67
2023/01/24 20:32:38;;;;;;;64.10;30.30;;;;;;;1.45;88.64;102023.36;210693;1298;139344;-67
2023/01/24 20:37:42;;;;;;;59.20;29.50;;;;;;;1.44;88.80;102019.58;210038;1298;140049;-67
2023/01/24 20:42:44;;;;;;;54.00;31.80;;;;;;;1.48;88.98;102016.31;210965;1293;140643;-67
2023/01/24 20:47:48;;;;;;;55.30;28.90;;;;;;;1.49;89.04;102017.24;210270;1296;266854;-67
2023/01/24 20:52:50;;;;;;;63.90;32.30;;;;;;;1.47;88.99;102012.13;211181;1291;139042;-66
2023/01/24 20:57:54;;;;;;;50.30;29.70;;;;;;;1.44;88.86;102016.19;211267;1304;141643;-66
2023/01/24 21:02:58;;;;;;;55.90;29.00;;;;;;;1.41;88.62;102016.61;210863;1301;140264;-67
2023/01/24 21:08:02;;;;;;;63.80;34.90;;;;;;;1.38;88.65;102019.15;210346;1298;140205;-67
2023/01/24 21:13:06;;;;;;;75.10;35.50;;;;;;;1.41;89.24;102020.14;210567;1304;139572;-67
2023/01/24 21:18:17;;;;;;;73.70;33.50;;;;;;;1.41;88.36;102014.20;211735;1298;141427;-67
2023/01/24 21:23:25;;;;;;;71.60;36.70;;;;;;;1.37;88.47;102017.50;210821;1298;140049;-66
2023/01/24 21:28:29;;;;;;;76.90;37.40;;;;;;;1.35;88.73;102016.59;210990;1296;139675;-66
2023/01/24 21:33:32;;;;;;;66.50;36.30;;;;;;;1.36;89.03;102013.20;211017;1291;138818;-65
2023/01/24 21:38:36;;;;;;;71.20;36.00;;;;;;;1.38;88.41;102011.45;211828;1298;140146;-66
2023/01/24 21:43:39;;;;;;;70.70;34.30;;;;;;;1.44;88.81;102005.53;211411;1291;140558;-66
2023/01/24 21:54:17;;;;;;;73.60;32.40;;;;;;;1.47;88.67;102009.16;213043;1299;139383;-66
2023/01/24 21:59:26;;;;;;;64.00;31.10;;;;;;;1.52;88.70;102012.80;211520;1300;140319;-68
2023/01/24 22:04:32;;;;;;;64.00;32.70;;;;;;;1.53;88.63;102008.52;211459;1299;140121;-68
2023/01/24 22:09:37;;;;;;;74.50;39.60;;;;;;;1.48;88.23;102011.85;210509;1302;139597;-66
2023/01/24 22:14:43;;;;;;;77.50;36.40;;;;;;;1.41;88.32;102015.98;211126;1296;142392;-66
2023/01/24 22:19:56;;;;;;;65.90;34.70;;;;;;;1.35;88.38;102020.77;210470;1304;139807;-67
2023/01/24 22:25:15;;;;;;;70.00;34.30;;;;;;;1.26;87.77;102020.25;210197;1302;139762;-65
2023/01/24 22:30:22;;;;;;;70.30;37.30;;;;;;;1.24;88.84;102012.36;210479;1298;142496;-66
2023/01/24 22:35:27;;;;;;;69.00;34.50;;;;;;;1.22;88.66;102009.39;210806;1290;140005;-66
2023/01/24 22:40:31;;;;;;;66.70;35.40;;;;;;;1.20;88.68;102006.20;210379;1291;139100;-66
2023/01/24 22:45:34;;;;;;;64.40;32.10;;;;;;;1.20;88.73;102005.02;210841;1300;139728;-66
2023/01/24 22:50:38;;;;;;;61.00;31.80;;;;;;;1.17;88.68;101999.59;210390;1297;139743;-66
2023/01/24 22:55:42;;;;;;;68.40;34.20;;;;;;;1.14;88.43;101994.38;210868;1290;140415;-66
2023/01/24 23:00:45;;;;;;;72.10;33.70;;;;;;;1.13;88.63;101991.15;211253;1285;139533;-66
2023/01/24 23:05:48;;;;;;;64.40;33.00;;;;;;;1.15;89.11;101990.86;210472;1290;139814;-66
2023/01/24 23:10:52;;;;;;;60.80;30.40;;;;;;;1.17;88.57;101983.46;210777;1296;140858;-66
2023/01/24 23:16:10;;;;;;;72.70;34.00;;;;;;;1.15;88.65;101972.98;211781;1301;142029;-66
2023/01/24 23:21:34;;;;;;;70.00;31.00;;;;;;;1.12;88.73;101956.76;211158;1303;140413;-66
2023/01/24 23:26:38;;;;;;;73.30;32.60;;;;;;;1.14;88.62;101946.83;211765;1304;139958;-66
2023/01/24 23:31:46;;;;;;;66.00;32.60;;;;;;;1.18;88.64;101947.00;211111;1292;141120;-66
2023/01/24 23:36:50;;;;;;;58.20;27.70;;;;;;;1.17;88.62;101951.80;211843;1303;139153;-66